Time;durP1;ratioP1;P1;durP2;ratioP2;P2;SDS_P1;SDS_P2;PMS_P1;PMS_P2;Temp;Humidity;BMP_temperature;BMP_pressure;BME280_temperature;BME280_humidity;BME280_pressure;Samples;Min_cycle;Max_cycle;Signal;HPM_P1;HPM_P2
2021/12/27 00:00:42;;;;;;;71.07;47.20;;;;;;;-144.47;100.00;61586.06;5020241;28;20038;-87
2021/12/27 00:03:09;;;;;;;71.70;47.60;;;;;;;-144.47;100.00;61586.06;5028368;28;20091;-87
2021/12/27 00:05:34;;;;;;;72.60;46.90;;;;;;;-144.47;100.00;61586.06;5018110;28;20032;-88
2021/12/27 00:08:00;;;;;;;71.90;47.60;;;;;;;-144.47;100.00;61586.06;5052959;28;20044;-86
2021/12/27 00:10:28;;;;;;;68.70;45.63;;;;;;;-144.47;100.00;61586.06;5035238;28;20057;-88
2021/12/27 00:12:54;;;;;;;75.43;47.60;;;;;;;-144.47;100.00;61586.06;5035004;28;20461;-88
2021/12/27 00:15:20;;;;;;;70.82;46.33;;;;;;;-144.47;100.00;61586.06;5036604;28;20032;-88
2021/12/27 00:17:47;;;;;;;70.63;46.55;;;;;;;-144.47;100.00;61586.06;5019017;28;20040;-88
2021/12/27 00:20:18;;;;;;;69.85;48.40;;;;;;;-144.47;100.00;61586.06;5051338;28;20041;-89
2021/12/27 00:22:45;;;;;;;69.82;46.17;;;;;;;-144.47;100.00;61586.06;5033585;28;20052;-88
2021/12/27 00:25:12;;;;;;;71.10;47.10;;;;;;;-144.47;100.00;61586.06;5040210;28;20033;-88
2021/12/27 00:27:38;;;;;;;68.22;45.53;;;;;;;-144.47;100.00;61586.06;5035573;28;20370;-88
2021/12/27 00:30:07;;;;;;;68.20;44.50;;;;;;;-144.47;100.00;61586.06;5017757;28;20105;-88
2021/12/27 00:32:36;;;;;;;71.03;47.88;;;;;;;-144.47;100.00;61586.06;5034742;28;20545;-88
2021/12/27 00:35:05;;;;;;;74.13;49.47;;;;;;;-144.47;100.00;61586.06;5053036;28;20036;-89
2021/12/27 00:37:31;;;;;;;75.00;48.45;;;;;;;-144.47;100.00;61586.06;5034520;28;20067;-87
2021/12/27 00:39:56;;;;;;;70.43;45.90;;;;;;;-144.47;100.00;61586.06;5018276;28;20397;-87
2021/12/27 00:42:22;;;;;;;69.53;47.60;;;;;;;-144.47;100.00;61586.06;5034354;28;20056;-87
2021/12/27 00:44:47;;;;;;;75.03;48.72;;;;;;;-144.47;100.00;61586.06;5052372;28;20044;-87
2021/12/27 00:47:14;;;;;;;69.25;47.05;;;;;;;-144.47;100.00;61586.06;5052559;28;20150;-88
2021/12/27 00:49:40;;;;;;;73.63;48.67;;;;;;;-144.47;100.00;61586.06;5034319;28;20064;-88
2021/12/27 00:52:06;;;;;;;70.60;46.65;;;;;;;-144.47;100.00;61586.06;5018022;28;20381;-87
2021/12/27 00:54:31;;;;;;;70.72;47.13;;;;;;;-144.47;100.00;61586.06;5034165;28;20033;-87
2021/12/27 00:56:57;;;;;;;68.65;45.90;;;;;;;-144.47;100.00;61586.06;5018226;28;20037;-87
2021/12/27 00:59:23;;;;;;;63.33;45.22;;;;;;;-144.47;100.00;61586.06;5018887;28;20099;-88
2021/12/27 01:01:49;;;;;;;66.80;46.17;;;;;;;-144.47;100.00;61586.06;5034534;28;20480;-87
2021/12/27 01:04:14;;;;;;;66.35;45.75;;;;;;;-144.47;100.00;61586.06;5034655;28;20044;-88
2021/12/27 01:06:40;;;;;;;67.75;44.38;;;;;;;-144.47;100.00;61586.06;5019641;28;20061;-88
2021/12/27 01:09:05;;;;;;;69.55;47.25;;;;;;;-144.47;100.00;61586.06;5038995;28;20085;-87
2021/12/27 01:11:58;;;;;;;68.13;46.40;;;;;;;-144.47;100.00;61586.06;5057802;28;20088;-87
2021/12/27 01:17:18;;;;;;;68.43;46.88;;;;;;;-144.47;100.00;61586.06;5043200;28;20037;-88
2021/12/27 01:19:43;;;;;;;70.63;46.08;;;;;;;-144.47;100.00;61586.06;5056086;28;20126;-88
2021/12/27 01:22:09;;;;;;;64.30;45.72;;;;;;;-144.47;100.00;61586.06;5036099;28;20032;-86
2021/12/27 01:24:34;;;;;;;67.38;44.67;;;;;;;-144.47;100.00;61586.06;5027187;28;20040;-87
2021/12/27 01:27:02;;;;;;;69.78;45.90;;;;;;;-144.47;100.00;61586.06;5053912;28;20028;-87
2021/12/27 01:29:28;;;;;;;71.10;48.22;;;;;;;-144.47;100.00;61586.06;5059404;28;20036;-87
2021/12/27 01:31:53;;;;;;;74.10;47.45;;;;;;;-144.47;100.00;61586.06;5073703;28;20080;-87
2021/12/27 01:34:19;;;;;;;69.47;47.03;;;;;;;-144.47;100.00;61586.06;5038199;28;20063;-87
2021/12/27 01:36:44;;;;;;;68.05;44.45;;;;;;;-144.47;100.00;61586.06;5061016;28;20048;-87
2021/12/27 01:39:10;;;;;;;67.10;46.25;;;;;;;-144.47;100.00;61586.06;5061398;28;20393;-88
2021/12/27 01:41:35;;;;;;;68.05;46.47;;;;;;;-144.47;100.00;61586.06;5044983;28;20039;-86
2021/12/27 01:44:01;;;;;;;65.30;44.55;;;;;;;-144.47;100.00;61586.06;5025812;28;20052;-87
2021/12/27 01:46:29;;;;;;;68.32;46.63;;;;;;;-144.47;100.00;61586.06;5024311;28;20029;-87
2021/12/27 01:48:56;;;;;;;63.35;43.88;;;;;;;-144.47;100.00;61586.06;5056500;28;20040;-88
2021/12/27 01:51:30;;;;;;;62.75;43.03;;;;;;;-144.47;100.00;61586.06;5039549;28;20029;-89
2021/12/27 01:53:57;;;;;;;66.30;44.97;;;;;;;-144.47;100.00;61586.06;5054762;28;20082;-86
2021/12/27 01:56:23;;;;;;;65.75;43.75;;;;;;;-144.47;100.00;61586.06;5019120;28;20044;-87
2021/12/27 01:58:51;;;;;;;65.93;44.53;;;;;;;-144.47;100.00;61586.06;5053257;28;20606;-87
2021/12/27 02:01:18;;;;;;;63.10;42.15;;;;;;;-144.47;100.00;61586.06;5020644;28;20065;-87
2021/12/27 02:03:44;;;;;;;63.15;42.75;;;;;;;-144.47;100.00;61586.06;5038184;28;20115;-90
2021/12/27 02:06:12;;;;;;;63.40;42.35;;;;;;;-144.47;100.00;61586.06;5056222;28;20071;-89
2021/12/27 02:08:41;;;;;;;60.28;43.28;;;;;;;-144.47;100.00;61586.06;5020990;28;20040;-89
2021/12/27 02:11:09;;;;;;;64.20;43.33;;;;;;;-144.47;100.00;61586.06;5037918;28;20116;-89
2021/12/27 02:13:42;;;;;;;58.30;40.55;;;;;;;-144.47;100.00;61586.06;5037905;28;20454;-89
2021/12/27 02:16:10;;;;;;;58.28;40.30;;;;;;;-144.47;100.00;61586.06;5020709;28;20040;-88
2021/12/27 02:18:37;;;;;;;57.42;40.33;;;;;;;-144.47;100.00;61586.06;5056034;28;20037;-88
2021/12/27 02:21:03;;;;;;;54.83;38.90;;;;;;;-144.47;100.00;61586.06;5021811;28;20037;-88
2021/12/27 02:23:29;;;;;;;56.42;41.22;;;;;;;-144.47;100.00;61586.06;5021145;28;20029;-88
2021/12/27 02:25:54;;;;;;;56.20;40.53;;;;;;;-144.47;100.00;61586.06;5021720;28;20484;-89
2021/12/27 02:28:20;;;;;;;53.30;39.83;;;;;;;-144.47;100.00;61586.06;5044534;28;20089;-88
2021/12/27 02:30:48;;;;;;;52.75;38.80;;;;;;;-144.47;100.00;61586.06;5056274;28;20128;-89
2021/12/27 02:33:14;;;;;;;52.42;37.30;;;;;;;-144.47;100.00;61586.06;5009367;28;20051;-89
2021/12/27 02:35:44;;;;;;;53.85;39.00;;;;;;;-144.47;100.00;61586.06;5022183;28;20057;-89
2021/12/27 02:38:14;;;;;;;56.33;38.65;;;;;;;-144.47;100.00;61586.06;5022921;28;20029;-89
2021/12/27 02:40:41;;;;;;;54.45;38.17;;;;;;;-144.47;100.00;61586.06;5026415;28;20036;-88
2021/12/27 02:43:10;;;;;;;53.50;38.60;;;;;;;-144.47;100.00;61586.06;5026498;28;20513;-86
2021/12/27 02:45:39;;;;;;;55.53;38.63;;;;;;;-144.47;100.00;61586.06;5043952;28;20036;-87
2021/12/27 02:48:06;;;;;;;54.28;39.35;;;;;;;-144.47;100.00;61586.06;5062593;28;20052;-88
2021/12/27 02:50:33;;;;;;;51.72;38.13;;;;;;;-144.47;100.00;61586.06;5026226;28;20048;-88
2021/12/27 02:52:59;;;;;;;51.97;37.88;;;;;;;-144.47;100.00;61586.06;5062799;28;20028;-88
2021/12/27 02:55:26;;;;;;;53.58;38.65;;;;;;;-144.47;100.00;61586.06;5060971;28;20087;-87
2021/12/27 02:57:52;;;;;;;49.60;37.00;;;;;;;-144.47;100.00;61586.06;5025988;28;20064;-87
2021/12/27 03:00:21;;;;;;;50.67;37.67;;;;;;;-144.47;100.00;61586.06;5042713;28;20049;-88
2021/12/27 03:02:50;;;;;;;56.53;40.22;;;;;;;-144.47;100.00;61586.06;5026757;28;20041;-88
2021/12/27 03:05:17;;;;;;;54.92;39.95;;;;;;;-144.47;100.00;61586.06;5027127;28;20047;-88
2021/12/27 03:07:45;;;;;;;55.00;37.75;;;;;;;-144.47;100.00;61586.06;5041591;28;20044;-88
2021/12/27 03:10:13;;;;;;;52.25;37.17;;;;;;;-144.47;100.00;61586.06;5042831;28;20079;-88
2021/12/27 03:12:39;;;;;;;61.17;41.17;;;;;;;-144.47;100.00;61586.06;5042335;28;20477;-87
2021/12/27 03:15:07;;;;;;;51.90;38.05;;;;;;;-144.47;100.00;61586.06;5042749;28;20040;-87
2021/12/27 03:17:33;;;;;;;53.78;39.30;;;;;;;-144.47;100.00;61586.06;5030712;28;20032;-89
2021/12/27 03:19:59;;;;;;;53.80;38.70;;;;;;;-144.47;100.00;61586.06;5042226;28;20165;-88
2021/12/27 03:22:24;;;;;;;55.50;39.25;;;;;;;-144.47;100.00;61586.06;5050318;28;20080;-87
2021/12/27 03:24:50;;;;;;;58.10;39.50;;;;;;;-144.47;100.00;61586.06;5058510;28;20031;-85
2021/12/27 03:27:16;;;;;;;53.35;38.70;;;;;;;-144.47;100.00;61586.06;5041474;28;20080;-87
2021/12/27 03:29:42;;;;;;;54.20;39.08;;;;;;;-144.47;100.00;61586.06;5076183;28;20052;-88
2021/12/27 03:32:07;;;;;;;52.95;37.45;;;;;;;-144.47;100.00;61586.06;5042550;28;20032;-88
2021/12/27 03:34:33;;;;;;;51.47;37.63;;;;;;;-144.47;100.00;61586.06;5058847;28;20020;-89
2021/12/27 03:36:59;;;;;;;51.85;38.22;;;;;;;-144.47;100.00;61586.06;5041725;28;20047;-89
2021/12/27 03:39:25;;;;;;;48.97;35.95;;;;;;;-144.47;100.00;61586.06;5042025;28;20103;-88
2021/12/27 03:41:50;;;;;;;50.53;37.22;;;;;;;-144.47;100.00;61586.06;5045171;28;20021;-88
2021/12/27 03:44:16;;;;;;;48.30;34.88;;;;;;;-144.47;100.00;61586.06;5041886;28;20057;-88
2021/12/27 03:46:41;;;;;;;49.83;35.17;;;;;;;-144.47;100.00;61586.06;5041404;28;20045;-88
2021/12/27 03:49:07;;;;;;;51.28;34.85;;;;;;;-144.47;100.00;61586.06;5041702;28;20009;-88
2021/12/27 03:51:33;;;;;;;48.20;35.70;;;;;;;-144.47;100.00;61586.06;5074787;28;20009;-88
2021/12/27 03:53:59;;;;;;;46.60;33.80;;;;;;;-144.47;100.00;61586.06;5038753;28;20040;-88
2021/12/27 03:56:27;;;;;;;45.47;34.80;;;;;;;-144.47;100.00;61586.06;5044793;28;20109;-88
2021/12/27 03:58:57;;;;;;;44.67;33.47;;;;;;;-144.47;100.00;61586.06;5021389;28;20079;-89
2021/12/27 04:01:24;;;;;;;48.10;36.20;;;;;;;-144.47;100.00;61586.06;5021688;28;20045;-87
2021/12/27 04:03:55;;;;;;;45.78;34.05;;;;;;;-144.47;100.00;61586.06;5021292;28;20040;-88
2021/12/27 04:06:22;;;;;;;;;;;;;;;-144.47;100.00;61586.06;5037328;28;20535;-87
2021/12/27 04:08:47;;;;;;;47.70;35.22;;;;;;;-144.47;100.00;61586.06;5054574;28;20382;-88
2021/12/27 04:11:14;;;;;;;47.50;35.10;;;;;;;-144.47;100.00;61586.06;5024019;28;20124;-89
2021/12/27 04:13:39;;;;;;;46.40;34.70;;;;;;;-144.47;100.00;61586.06;5031940;28;20033;-89
2021/12/27 04:16:06;;;;;;;48.90;34.70;;;;;;;-144.47;100.00;61586.06;5035294;28;20063;-88
2021/12/27 04:18:31;;;;;;;47.45;34.78;;;;;;;-144.47;100.00;61586.06;5035660;28;20029;-88
2021/12/27 04:20:57;;;;;;;52.38;37.22;;;;;;;-144.47;100.00;61586.06;5035107;28;20070;-88
2021/12/27 04:23:23;;;;;;;49.85;37.10;;;;;;;-144.47;100.00;61586.06;5019362;28;20024;-88
2021/12/27 04:25:49;;;;;;;48.30;35.60;;;;;;;-144.47;100.00;61586.06;5018817;28;20040;-88
2021/12/27 04:28:16;;;;;;;53.00;37.50;;;;;;;-144.47;100.00;61586.06;5019606;28;20530;-88
2021/12/27 04:30:43;;;;;;;49.33;36.40;;;;;;;-144.47;100.00;61586.06;5019495;28;20032;-88
2021/12/27 04:33:08;;;;;;;51.13;35.65;;;;;;;-144.47;100.00;61586.06;5019314;28;20098;-88
2021/12/27 04:35:34;;;;;;;46.72;33.35;;;;;;;-144.47;100.00;61586.06;5018554;28;20469;-88
2021/12/27 04:38:01;;;;;;;49.47;35.15;;;;;;;-144.47;100.00;61586.06;5019999;28;20052;-88
2021/12/27 04:40:29;;;;;;;48.33;34.40;;;;;;;-144.47;100.00;61586.06;5022822;28;20033;-88
2021/12/27 04:43:04;;;;;;;47.10;34.13;;;;;;;-144.47;100.00;61586.06;5035241;28;20029;-88
2021/12/27 04:45:29;;;;;;;44.67;33.58;;;;;;;-144.47;100.00;61586.06;5027321;28;20033;-89
2021/12/27 04:47:55;;;;;;;44.63;31.90;;;;;;;-144.47;100.00;61586.06;5036557;28;20032;-89
2021/12/27 04:50:23;;;;;;;42.28;32.08;;;;;;;-144.47;100.00;61586.06;5035953;28;20407;-88
2021/12/27 04:52:52;;;;;;;46.55;32.97;;;;;;;-144.47;100.00;61586.06;5035310;28;20029;-89
2021/12/27 04:55:20;;;;;;;43.88;32.17;;;;;;;-144.47;100.00;61586.06;5030433;28;20025;-88
2021/12/27 04:57:45;;;;;;;45.58;32.42;;;;;;;-144.47;100.00;61586.06;5070826;28;20028;-89
2021/12/27 05:00:12;;;;;;;42.28;32.95;;;;;;;-144.47;100.00;61586.06;5037096;28;20025;-88
2021/12/27 05:02:37;;;;;;;42.08;32.90;;;;;;;-144.47;100.00;61586.06;5022459;28;20029;-88
2021/12/27 05:05:03;;;;;;;44.97;33.47;;;;;;;-144.47;100.00;61586.06;5015619;28;20117;-88
2021/12/27 05:07:29;;;;;;;42.67;31.70;;;;;;;-144.47;100.00;61586.06;5017498;28;20052;-88
2021/12/27 05:09:56;;;;;;;43.53;31.98;;;;;;;-144.47;100.00;61586.06;5000743;28;20030;-89
2021/12/27 05:12:21;;;;;;;42.65;31.48;;;;;;;-144.47;100.00;61586.06;5020240;28;20183;-88
2021/12/27 05:14:47;;;;;;;37.78;30.42;;;;;;;-144.47;100.00;61586.06;5019649;28;20156;-89
2021/12/27 05:17:12;;;;;;;36.15;29.55;;;;;;;-144.47;100.00;61586.06;5003409;28;20040;-87
2021/12/27 05:19:38;;;;;;;38.60;29.27;;;;;;;-144.47;100.00;61586.06;5036872;28;20030;-87
2021/12/27 05:22:03;;;;;;;36.03;28.83;;;;;;;-144.47;100.00;61586.06;5019560;28;20045;-87
2021/12/27 05:24:29;;;;;;;39.08;29.73;;;;;;;-144.47;100.00;61586.06;5024485;28;20065;-88
2021/12/27 05:26:54;;;;;;;39.03;29.65;;;;;;;-144.47;100.00;61586.06;5019084;28;20493;-88
2021/12/27 05:29:20;;;;;;;38.50;29.17;;;;;;;-144.47;100.00;61586.06;5003262;28;20029;-88
2021/12/27 05:31:46;;;;;;;38.00;28.80;;;;;;;-144.47;100.00;61586.06;5002627;28;20095;-89
2021/12/27 05:34:14;;;;;;;35.92;28.65;;;;;;;-144.47;100.00;61586.06;5003950;28;20033;-89
2021/12/27 05:36:42;;;;;;;33.78;26.60;;;;;;;-144.47;100.00;61586.06;5019352;28;20104;-89
2021/12/27 05:39:08;;;;;;;33.53;26.75;;;;;;;-144.47;100.00;61586.06;5020454;28;20029;-89
2021/12/27 05:41:34;;;;;;;34.15;27.73;;;;;;;-144.47;100.00;61586.06;5021432;28;20036;-88
2021/12/27 05:43:59;;;;;;;37.03;27.88;;;;;;;-144.47;100.00;61586.06;5015485;28;20013;-89
2021/12/27 05:46:25;;;;;;;35.35;27.20;;;;;;;-144.47;100.00;61586.06;5041940;28;20021;-88
2021/12/27 05:48:51;;;;;;;32.85;26.95;;;;;;;-144.47;100.00;61586.06;5025222;28;20033;-88
2021/12/27 05:51:18;;;;;;;36.88;28.75;;;;;;;-144.47;100.00;61586.06;5026212;28;20033;-89
2021/12/27 05:53:44;;;;;;;33.38;26.55;;;;;;;-144.47;100.00;61586.06;5024653;28;20044;-88
2021/12/27 05:56:10;;;;;;;34.63;27.65;;;;;;;-144.47;100.00;61586.06;5011572;28;20030;-88
2021/12/27 05:58:36;;;;;;;32.55;27.10;;;;;;;-144.47;100.00;61586.06;4991620;28;20046;-88
2021/12/27 06:01:02;;;;;;;34.78;27.65;;;;;;;-144.47;100.00;61586.06;5020948;28;20203;-87
2021/12/27 06:03:27;;;;;;;37.08;29.52;;;;;;;-144.47;100.00;61586.06;5022757;28;20033;-88
2021/12/27 06:05:53;;;;;;;33.55;28.25;;;;;;;-144.47;100.00;61586.06;5023679;28;20025;-89
2021/12/27 06:08:18;;;;;;;36.97;29.65;;;;;;;-144.47;100.00;61586.06;5059068;28;20508;-89
2021/12/27 06:10:44;;;;;;;38.65;29.38;;;;;;;-144.47;100.00;61586.06;5041865;28;20029;-88
2021/12/27 06:13:11;;;;;;;35.03;29.08;;;;;;;-144.47;100.00;61586.06;5047061;28;20029;-87
2021/12/27 06:15:36;;;;;;;35.30;28.30;;;;;;;-144.47;100.00;61586.06;5039755;28;20043;-87
2021/12/27 06:18:02;;;;;;;34.33;28.77;;;;;;;-144.47;100.00;61586.06;5074234;28;20044;-89
2021/12/27 06:20:28;;;;;;;38.20;28.52;;;;;;;-144.47;100.00;61586.06;5039643;28;20017;-89
2021/12/27 06:22:57;;;;;;;34.97;28.42;;;;;;;-144.47;100.00;61586.06;5074715;28;20137;-88
2021/12/27 06:25:23;;;;;;;31.50;27.00;;;;;;;-144.47;100.00;61586.06;5042961;28;20060;-88
2021/12/27 06:27:50;;;;;;;33.63;27.30;;;;;;;-144.47;100.00;61586.06;5058785;28;20297;-88
2021/12/27 06:30:16;;;;;;;33.58;27.35;;;;;;;-144.47;100.00;61586.06;5058462;28;20025;-88
2021/12/27 06:32:43;;;;;;;32.58;27.15;;;;;;;-144.47;100.00;61586.06;5038673;28;20103;-88
2021/12/27 06:35:11;;;;;;;35.40;28.63;;;;;;;-144.47;100.00;61586.06;5022467;28;20034;-87
2021/12/27 06:37:42;;;;;;;36.28;28.27;;;;;;;-144.47;100.00;61586.06;5042505;28;20025;-89
2021/12/27 06:40:09;;;;;;;34.65;29.27;;;;;;;-144.47;100.00;61586.06;5060791;28;20033;-89
2021/12/27 06:42:35;;;;;;;35.67;28.40;;;;;;;-144.47;100.00;61586.06;5055353;28;20036;-89
2021/12/27 06:45:00;;;;;;;38.13;29.90;;;;;;;-144.47;100.00;61586.06;5047751;28;20037;-89
2021/12/27 06:47:26;;;;;;;37.20;30.65;;;;;;;-144.47;100.00;61586.06;5023273;28;20060;-89
2021/12/27 06:49:52;;;;;;;36.42;29.30;;;;;;;-144.47;100.00;61586.06;5037832;28;20552;-88
2021/12/27 06:52:18;;;;;;;36.65;29.55;;;;;;;-144.47;100.00;61586.06;5021011;28;20060;-88
2021/12/27 06:54:43;;;;;;;37.50;28.52;;;;;;;-144.47;100.00;61586.06;5020612;28;20634;-89
2021/12/27 06:57:09;;;;;;;38.22;30.25;;;;;;;-144.47;100.00;61586.06;5037416;28;20485;-88
2021/12/27 06:59:34;;;;;;;39.65;30.90;;;;;;;-144.47;100.00;61586.06;5020484;28;20029;-88
2021/12/27 07:02:00;;;;;;;41.00;30.73;;;;;;;-144.47;100.00;61586.06;5016985;28;20057;-87
2021/12/27 07:04:26;;;;;;;39.65;29.98;;;;;;;-144.47;100.00;61586.06;5041416;28;20396;-89
2021/12/27 07:06:53;;;;;;;42.97;31.35;;;;;;;-144.47;100.00;61586.06;5016666;28;20045;-90
2021/12/27 07:09:18;;;;;;;40.42;32.00;;;;;;;-144.47;100.00;61586.06;5000756;28;20035;-89
2021/12/27 07:11:44;;;;;;;38.35;29.85;;;;;;;-144.47;100.00;61586.06;5016745;28;20061;-88
2021/12/27 07:14:10;;;;;;;38.55;30.75;;;;;;;-144.47;100.00;61586.06;5000015;28;20034;-88
2021/12/27 07:16:36;;;;;;;37.00;29.83;;;;;;;-144.47;100.00;61586.06;5015781;28;20049;-89
2021/12/27 07:19:02;;;;;;;39.17;31.33;;;;;;;-144.47;100.00;61586.06;5000301;28;20079;-89
2021/12/27 07:21:28;;;;;;;40.17;31.40;;;;;;;-144.47;100.00;61586.06;5016557;28;20029;-89
2021/12/27 07:23:53;;;;;;;37.78;30.67;;;;;;;-144.47;100.00;61586.06;5000515;28;20040;-89
2021/12/27 07:26:19;;;;;;;42.50;31.90;;;;;;;-144.47;100.00;61586.06;4997256;28;20363;-88
2021/12/27 07:28:44;;;;;;;37.95;30.00;;;;;;;-144.47;100.00;61586.06;5016253;28;20094;-89
2021/12/27 07:31:11;;;;;;;37.40;29.75;;;;;;;-144.47;100.00;61586.06;5016522;28;20544;-89
2021/12/27 07:33:38;;;;;;;38.67;31.70;;;;;;;-144.47;100.00;61586.06;4998718;28;20026;-89
2021/12/27 07:36:07;;;;;;;36.22;29.45;;;;;;;-144.47;100.00;61586.06;5015858;28;20113;-89
2021/12/27 07:38:35;;;;;;;35.05;29.05;;;;;;;-144.47;100.00;61586.06;4999475;28;20025;-88
2021/12/27 07:41:01;;;;;;;35.08;28.65;;;;;;;-144.47;100.00;61586.06;4999218;28;20033;-89
2021/12/27 07:43:27;;;;;;;38.00;29.40;;;;;;;-144.47;100.00;61586.06;5040254;28;20037;-89
2021/12/27 07:45:53;;;;;;;40.65;30.27;;;;;;;-144.47;100.00;61586.06;5015255;28;20041;-89
2021/12/27 07:48:18;;;;;;;36.63;29.75;;;;;;;-144.47;100.00;61586.06;5015686;28;20387;-88
2021/12/27 07:50:44;;;;;;;35.15;29.02;;;;;;;-144.47;100.00;61586.06;5015564;28;20076;-89
2021/12/27 07:53:10;;;;;;;33.35;27.60;;;;;;;-144.47;100.00;61586.06;4999791;28;20382;-88
2021/12/27 07:55:35;;;;;;;36.13;29.85;;;;;;;-144.47;100.00;61586.06;5015663;28;20037;-89
2021/12/27 07:58:01;;;;;;;35.22;28.40;;;;;;;-144.47;100.00;61586.06;5015777;28;20444;-89
2021/12/27 08:00:27;;;;;;;33.35;27.08;;;;;;;-144.47;100.00;61586.06;5015011;28;20053;-88
2021/12/27 08:02:53;;;;;;;32.35;27.30;;;;;;;-144.47;100.00;61586.06;5016832;28;20413;-87
2021/12/27 08:05:19;;;;;;;34.40;27.90;;;;;;;-144.47;100.00;61586.06;5000711;28;20474;-87
2021/12/27 08:07:45;;;;;;;33.58;27.50;;;;;;;-144.47;100.00;61586.06;5035493;28;20033;-87
2021/12/27 08:10:14;;;;;;;33.75;28.63;;;;;;;-144.47;100.00;61586.06;5002410;28;20041;-87
2021/12/27 08:12:41;;;;;;;33.47;27.60;;;;;;;-144.47;100.00;61586.06;5001811;28;20045;-84
2021/12/27 08:15:08;;;;;;;38.00;26.92;;;;;;;-144.47;100.00;61586.06;5033576;28;20038;-86
2021/12/27 08:17:34;;;;;;;33.15;27.20;;;;;;;-144.47;100.00;61586.06;5014683;28;20037;-85
2021/12/27 08:20:00;;;;;;;32.17;27.20;;;;;;;-144.47;100.00;61586.06;5014110;28;20038;-82
2021/12/27 08:22:26;;;;;;;31.75;27.52;;;;;;;-144.47;100.00;61586.06;5031495;28;20079;-81
2021/12/27 08:24:51;;;;;;;33.60;25.70;;;;;;;-144.47;100.00;61586.06;5031090;28;20100;-82
2021/12/27 08:27:20;;;;;;;31.80;26.25;;;;;;;-144.47;100.00;61586.06;5034515;28;20040;-90
2021/12/27 08:29:46;;;;;;;32.75;26.20;;;;;;;-144.47;100.00;61586.06;4998108;28;20037;-88
2021/12/27 08:32:12;;;;;;;37.90;28.27;;;;;;;-144.47;100.00;61586.06;5015192;28;20370;-86
2021/12/27 08:34:38;;;;;;;31.50;26.67;;;;;;;-144.47;100.00;61586.06;5032075;28;20027;-86
2021/12/27 08:37:04;;;;;;;33.75;27.73;;;;;;;-144.47;100.00;61586.06;5032739;28;20041;-89
2021/12/27 08:39:29;;;;;;;33.35;26.50;;;;;;;-144.47;100.00;61586.06;5035867;28;20105;-89
2021/12/27 08:41:55;;;;;;;35.92;28.50;;;;;;;-144.47;100.00;61586.06;5037098;28;20037;-89
2021/12/27 08:44:20;;;;;;;33.38;27.73;;;;;;;-144.47;100.00;61586.06;5055213;28;20032;-88
2021/12/27 08:46:46;;;;;;;33.17;27.67;;;;;;;-144.47;100.00;61586.06;5055407;28;20045;-89
2021/12/27 08:49:12;;;;;;;32.47;27.15;;;;;;;-144.47;100.00;61586.06;5056085;28;20058;-89
2021/12/27 08:51:37;;;;;;;33.13;27.75;;;;;;;-144.47;100.00;61586.06;5024267;28;20044;-89
2021/12/27 08:54:04;;;;;;;33.95;27.48;;;;;;;-144.47;100.00;61586.06;5037071;28;20551;-88
2021/12/27 08:56:30;;;;;;;34.92;28.20;;;;;;;-144.47;100.00;61586.06;5038727;28;20042;-87
2021/12/27 08:58:56;;;;;;;33.88;27.60;;;;;;;-144.47;100.00;61586.06;5033544;28;20034;-88
2021/12/27 09:01:22;;;;;;;32.28;27.92;;;;;;;-144.47;100.00;61586.06;5046854;28;20043;-88
2021/12/27 09:03:47;;;;;;;33.67;27.98;;;;;;;-144.47;100.00;61586.06;5052620;28;20519;-90
2021/12/27 09:06:14;;;;;;;37.75;28.42;;;;;;;-144.47;100.00;61586.06;5019080;28;20029;-88
2021/12/27 09:08:40;;;;;;;35.45;28.38;;;;;;;-144.47;100.00;61586.06;5034855;28;20033;-88
2021/12/27 09:11:06;;;;;;;36.70;28.30;;;;;;;-144.47;100.00;61586.06;5052903;28;20071;-88
2021/12/27 09:13:33;;;;;;;35.83;27.50;;;;;;;-144.47;100.00;61586.06;5035073;28;20064;-87
2021/12/27 09:16:01;;;;;;;32.83;27.50;;;;;;;-144.47;100.00;61586.06;5034910;28;20039;-89
2021/12/27 09:18:32;;;;;;;34.88;28.20;;;;;;;-144.47;100.00;61586.06;5018197;28;20540;-88
2021/12/27 09:20:58;;;;;;;34.38;27.13;;;;;;;-144.47;100.00;61586.06;5053973;28;20033;-88
2021/12/27 09:23:24;;;;;;;34.90;26.23;;;;;;;-144.47;100.00;61586.06;5052730;28;20029;-89
2021/12/27 09:25:50;;;;;;;35.08;27.02;;;;;;;-144.47;100.00;61586.06;5034413;28;20036;-88
2021/12/27 09:28:17;;;;;;;36.05;28.13;;;;;;;-144.47;100.00;61586.06;5052722;28;20048;-88
2021/12/27 09:30:44;;;;;;;35.53;26.42;;;;;;;-144.47;100.00;61586.06;5034200;28;20021;-88
2021/12/27 09:33:10;;;;;;;34.03;26.83;;;;;;;-144.47;100.00;61586.06;5034434;28;20381;-86
2021/12/27 09:35:38;;;;;;;34.35;26.85;;;;;;;-144.47;100.00;61586.06;5051579;28;20381;-87
2021/12/27 09:38:04;;;;;;;32.15;26.23;;;;;;;-144.47;100.00;61586.06;5034402;28;20377;-89
2021/12/27 09:40:30;;;;;;;33.65;27.65;;;;;;;-144.47;100.00;61586.06;5051804;28;20489;-87
2021/12/27 09:42:56;;;;;;;33.30;26.98;;;;;;;-144.47;100.00;61586.06;5051926;28;20033;-89
2021/12/27 09:45:22;;;;;;;32.50;27.95;;;;;;;-144.47;100.00;61586.06;5037552;28;20115;-89
2021/12/27 09:47:50;;;;;;;37.40;27.73;;;;;;;-144.47;100.00;61586.06;5068887;28;20033;-87
2021/12/27 09:50:22;;;;;;;34.17;27.52;;;;;;;-144.47;100.00;61586.06;5051272;28;20033;-87
2021/12/27 09:52:48;;;;;;;34.85;27.48;;;;;;;-144.47;100.00;61586.06;5053730;28;20101;-88
2021/12/27 09:55:15;;;;;;;36.72;27.67;;;;;;;-144.47;100.00;61586.06;5071574;28;20036;-88
2021/12/27 09:57:41;;;;;;;33.42;27.70;;;;;;;-144.47;100.00;61586.06;5057720;28;20044;-87
2021/12/27 10:00:08;;;;;;;34.30;27.95;;;;;;;-144.47;100.00;61586.06;5057522;28;20397;-88
2021/12/27 10:02:35;;;;;;;34.58;28.02;;;;;;;-144.47;100.00;61586.06;5038353;28;20068;-88
2021/12/27 10:05:00;;;;;;;34.45;27.63;;;;;;;-144.47;100.00;61586.06;5056054;28;20029;-87
2021/12/27 10:07:27;;;;;;;39.50;29.70;;;;;;;-144.47;100.00;61586.06;5021697;28;20043;-86
2021/12/27 10:09:59;;;;;;;39.50;29.98;;;;;;;-144.47;100.00;61586.06;5037986;28;20508;-89
2021/12/27 10:12:26;;;;;;;38.63;30.75;;;;;;;-144.47;100.00;61586.06;5037490;28;20052;-89
2021/12/27 10:15:00;;;;;;;40.72;30.50;;;;;;;-144.47;100.00;61586.06;5037405;28;20133;-88
2021/12/27 10:17:29;;;;;;;37.28;29.92;;;;;;;-144.47;100.00;61586.06;5037170;28;20124;-88
2021/12/27 10:19:55;;;;;;;36.35;29.55;;;;;;;-144.47;100.00;61586.06;5037224;28;20108;-88
2021/12/27 10:22:23;;;;;;;37.15;29.85;;;;;;;-144.47;100.00;61586.06;5037924;28;20045;-89
2021/12/27 10:24:53;;;;;;;36.92;30.20;;;;;;;-144.47;100.00;61586.06;5004776;28;20037;-89
2021/12/27 10:27:19;;;;;;;35.83;30.27;;;;;;;-144.47;100.00;61586.06;5037422;28;20029;-88
2021/12/27 10:29:44;;;;;;;46.40;33.88;;;;;;;-144.47;100.00;61586.06;5020393;28;20167;-89
2021/12/27 10:32:14;;;;;;;51.92;36.88;;;;;;;-144.47;100.00;61586.06;5036877;28;20033;-88
2021/12/27 10:34:45;;;;;;;53.05;37.17;;;;;;;-144.47;100.00;61586.06;5020237;28;20024;-89
2021/12/27 10:37:30;;;;;;;64.90;41.10;;;;;;;-144.47;100.00;61586.06;5021849;28;20036;-89
2021/12/27 10:40:05;;;;;;;83.90;45.13;;;;;;;-144.47;100.00;61586.06;5020608;28;20167;-88
2021/12/27 10:42:37;;;;;;;78.18;44.90;;;;;;;-144.47;100.00;61586.06;5053964;28;20033;-89
2021/12/27 10:45:11;;;;;;;62.60;39.75;;;;;;;-144.47;100.00;61586.06;5056443;28;20037;-89
2021/12/27 10:47:44;;;;;;;67.30;41.95;;;;;;;-144.47;100.00;61586.06;5037983;28;20025;-89
2021/12/27 10:50:31;;;;;;;64.15;39.80;;;;;;;-144.47;100.00;61586.06;5038526;28;20029;-89
2021/12/27 10:52:58;;;;;;;55.03;36.45;;;;;;;-144.47;100.00;61586.06;5040908;28;20029;-89
2021/12/27 10:55:46;;;;;;;56.88;38.58;;;;;;;-144.47;100.00;61586.06;5055866;28;20088;-88